sensor_id;sensor_type;location;lat;lon;timestamp;P1;durP1;ratioP1;P2;durP2;ratioP2
80384;SDS011;69702;44.618;33.604;2024-01-15T00:01:29;14.18;;;8.07;;
80384;SDS011;69702;44.618;33.604;2024-01-15T00:03:55;13.60;;;6.90;;
80384;SDS011;69702;44.618;33.604;2024-01-15T00:06:21;13.82;;;7.65;;
80384;SDS011;69702;44.618;33.604;2024-01-15T00:08:47;15.50;;;8.43;;
80384;SDS011;69702;44.618;33.604;2024-01-15T00:11:13;14.25;;;6.85;;
80384;SDS011;69702;44.618;33.604;2024-01-15T00:13:39;13.75;;;7.30;;
80384;SDS011;69702;44.618;33.604;2024-01-15T00:16:05;21.13;;;8.70;;
80384;SDS011;69702;44.618;33.604;2024-01-15T00:18:31;17.75;;;8.95;;
80384;SDS011;69702;44.618;33.604;2024-01-15T00:20:57;17.05;;;8.20;;
80384;SDS011;69702;44.618;33.604;2024-01-15T00:23:24;15.75;;;7.22;;
80384;SDS011;69702;44.618;33.604;2024-01-15T00:25:50;14.38;;;8.02;;
80384;SDS011;69702;44.618;33.604;2024-01-15T00:28:17;16.90;;;9.23;;
80384;SDS011;69702;44.618;33.604;2024-01-15T00:30:43;15.15;;;7.70;;
80384;SDS011;69702;44.618;33.604;2024-01-15T00:33:09;19.23;;;8.70;;
80384;SDS011;69702;44.618;33.604;2024-01-15T00:35:37;15.82;;;7.55;;
80384;SDS011;69702;44.618;33.604;2024-01-15T00:38:03;17.40;;;8.73;;
80384;SDS011;69702;44.618;33.604;2024-01-15T00:40:30;13.00;;;8.50;;
80384;SDS011;69702;44.618;33.604;2024-01-15T00:42:56;14.90;;;7.80;;
80384;SDS011;69702;44.618;33.604;2024-01-15T00:45:22;12.88;;;8.18;;
80384;SDS011;69702;44.618;33.604;2024-01-15T00:47:48;17.10;;;7.63;;
80384;SDS011;69702;44.618;33.604;2024-01-15T00:50:14;14.55;;;8.13;;
80384;SDS011;69702;44.618;33.604;2024-01-15T00:52:40;13.73;;;8.10;;
80384;SDS011;69702;44.618;33.604;2024-01-15T00:55:06;14.63;;;7.47;;
80384;SDS011;69702;44.618;33.604;2024-01-15T00:57:32;14.85;;;8.02;;
80384;SDS011;69702;44.618;33.604;2024-01-15T00:59:58;13.52;;;8.07;;
80384;SDS011;69702;44.618;33.604;2024-01-15T01:02:25;16.00;;;8.60;;
80384;SDS011;69702;44.618;33.604;2024-01-15T01:04:51;16.50;;;8.33;;
80384;SDS011;69702;44.618;33.604;2024-01-15T01:07:18;19.77;;;8.68;;
80384;SDS011;69702;44.618;33.604;2024-01-15T01:09:45;16.00;;;8.80;;
80384;SDS011;69702;44.618;33.604;2024-01-15T01:12:11;14.57;;;8.13;;
80384;SDS011;69702;44.618;33.604;2024-01-15T01:14:37;18.88;;;9.27;;
80384;SDS011;69702;44.618;33.604;2024-01-15T01:17:03;15.07;;;7.90;;
80384;SDS011;69702;44.618;33.604;2024-01-15T01:19:29;15.68;;;7.65;;
80384;SDS011;69702;44.618;33.604;2024-01-15T01:21:56;20.67;;;8.90;;
80384;SDS011;69702;44.618;33.604;2024-01-15T01:24:22;15.32;;;10.00;;
80384;SDS011;69702;44.618;33.604;2024-01-15T01:26:48;16.83;;;8.93;;
80384;SDS011;69702;44.618;33.604;2024-01-15T01:29:14;14.45;;;8.43;;
80384;SDS011;69702;44.618;33.604;2024-01-15T01:31:43;15.27;;;8.02;;
80384;SDS011;69702;44.618;33.604;2024-01-15T01:34:10;14.73;;;8.50;;
80384;SDS011;69702;44.618;33.604;2024-01-15T01:36:39;14.68;;;9.35;;
80384;SDS011;69702;44.618;33.604;2024-01-15T01:39:05;17.23;;;9.43;;
80384;SDS011;69702;44.618;33.604;2024-01-15T01:41:31;16.10;;;8.75;;
80384;SDS011;69702;44.618;33.604;2024-01-15T01:43:57;16.13;;;8.93;;
80384;SDS011;69702;44.618;33.604;2024-01-15T01:46:23;14.63;;;8.65;;
80384;SDS011;69702;44.618;33.604;2024-01-15T01:48:51;14.20;;;7.53;;
80384;SDS011;69702;44.618;33.604;2024-01-15T01:51:18;14.60;;;8.40;;
80384;SDS011;69702;44.618;33.604;2024-01-15T01:53:44;14.77;;;7.47;;
80384;SDS011;69702;44.618;33.604;2024-01-15T01:56:11;14.63;;;8.10;;
80384;SDS011;69702;44.618;33.604;2024-01-15T01:58:38;14.23;;;8.15;;
80384;SDS011;69702;44.618;33.604;2024-01-15T02:01:05;16.50;;;8.55;;
80384;SDS011;69702;44.618;33.604;2024-01-15T02:03:32;14.50;;;8.57;;
80384;SDS011;69702;44.618;33.604;2024-01-15T02:05:59;14.85;;;7.90;;
80384;SDS011;69702;44.618;33.604;2024-01-15T02:08:26;15.18;;;7.90;;
80384;SDS011;69702;44.618;33.604;2024-01-15T02:10:52;16.88;;;8.50;;
80384;SDS011;69702;44.618;33.604;2024-01-15T02:13:19;16.55;;;8.40;;
80384;SDS011;69702;44.618;33.604;2024-01-15T02:15:46;15.13;;;8.07;;
80384;SDS011;69702;44.618;33.604;2024-01-15T02:18:12;15.55;;;8.50;;
80384;SDS011;69702;44.618;33.604;2024-01-15T02:20:39;16.13;;;7.68;;
80384;SDS011;69702;44.618;33.604;2024-01-15T02:23:11;15.63;;;8.05;;
80384;SDS011;69702;44.618;33.604;2024-01-15T02:25:42;15.70;;;8.35;;
80384;SDS011;69702;44.618;33.604;2024-01-15T02:28:10;15.30;;;7.60;;
80384;SDS011;69702;44.618;33.604;2024-01-15T02:30:41;14.43;;;7.80;;
80384;SDS011;69702;44.618;33.604;2024-01-15T02:33:08;19.52;;;8.27;;
80384;SDS011;69702;44.618;33.604;2024-01-15T02:35:35;14.23;;;8.13;;
80384;SDS011;69702;44.618;33.604;2024-01-15T02:38:04;16.75;;;8.82;;
80384;SDS011;69702;44.618;33.604;2024-01-15T02:40:31;17.00;;;9.07;;
80384;SDS011;69702;44.618;33.604;2024-01-15T02:42:58;16.92;;;9.75;;
80384;SDS011;69702;44.618;33.604;2024-01-15T02:45:24;16.58;;;10.23;;
80384;SDS011;69702;44.618;33.604;2024-01-15T02:47:50;16.98;;;9.10;;
80384;SDS011;69702;44.618;33.604;2024-01-15T02:50:16;20.65;;;10.70;;
80384;SDS011;69702;44.618;33.604;2024-01-15T02:52:42;16.40;;;8.63;;
80384;SDS011;69702;44.618;33.604;2024-01-15T02:55:08;19.00;;;10.32;;
80384;SDS011;69702;44.618;33.604;2024-01-15T02:57:35;17.83;;;9.85;;
80384;SDS011;69702;44.618;33.604;2024-01-15T03:00:01;16.75;;;10.10;;
80384;SDS011;69702;44.618;33.604;2024-01-15T03:02:30;17.15;;;9.35;;
80384;SDS011;69702;44.618;33.604;2024-01-15T03:04:57;15.50;;;8.30;;
80384;SDS011;69702;44.618;33.604;2024-01-15T03:07:23;19.58;;;8.43;;
80384;SDS011;69702;44.618;33.604;2024-01-15T03:09:49;18.88;;;9.73;;
80384;SDS011;69702;44.618;33.604;2024-01-15T03:12:15;16.23;;;8.63;;
80384;SDS011;69702;44.618;33.604;2024-01-15T03:15:00;19.50;;;10.33;;
80384;SDS011;69702;44.618;33.604;2024-01-15T03:17:26;20.27;;;9.93;;
80384;SDS011;69702;44.618;33.604;2024-01-15T03:19:52;19.38;;;10.98;;
80384;SDS011;69702;44.618;33.604;2024-01-15T03:22:18;19.48;;;10.10;;
80384;SDS011;69702;44.618;33.604;2024-01-15T03:24:44;17.83;;;10.68;;
80384;SDS011;69702;44.618;33.604;2024-01-15T03:27:10;17.53;;;9.93;;
80384;SDS011;69702;44.618;33.604;2024-01-15T03:29:37;20.70;;;9.75;;
80384;SDS011;69702;44.618;33.604;2024-01-15T03:32:03;18.15;;;10.45;;
80384;SDS011;69702;44.618;33.604;2024-01-15T03:34:29;17.35;;;9.40;;
80384;SDS011;69702;44.618;33.604;2024-01-15T03:36:55;19.35;;;9.68;;
80384;SDS011;69702;44.618;33.604;2024-01-15T03:39:21;16.20;;;9.50;;
80384;SDS011;69702;44.618;33.604;2024-01-15T03:41:47;16.70;;;8.15;;
80384;SDS011;69702;44.618;33.604;2024-01-15T03:44:14;21.40;;;11.15;;
80384;SDS011;69702;44.618;33.604;2024-01-15T03:46:40;19.40;;;10.55;;
80384;SDS011;69702;44.618;33.604;2024-01-15T03:49:06;19.13;;;10.63;;
80384;SDS011;69702;44.618;33.604;2024-01-15T03:51:50;15.57;;;9.50;;
80384;SDS011;69702;44.618;33.604;2024-01-15T03:54:16;16.77;;;9.70;;
80384;SDS011;69702;44.618;33.604;2024-01-15T03:56:42;18.67;;;9.55;;
80384;SDS011;69702;44.618;33.604;2024-01-15T03:59:08;20.55;;;9.40;;
80384;SDS011;69702;44.618;33.604;2024-01-15T04:01:34;16.88;;;10.35;;
80384;SDS011;69702;44.618;33.604;2024-01-15T04:04:00;18.40;;;10.20;;
80384;SDS011;69702;44.618;33.604;2024-01-15T04:06:26;18.75;;;9.52;;
80384;SDS011;69702;44.618;33.604;2024-01-15T04:08:53;18.25;;;10.20;;
80384;SDS011;69702;44.618;33.604;2024-01-15T04:11:19;18.10;;;10.35;;
80384;SDS011;69702;44.618;33.604;2024-01-15T04:13:45;15.50;;;9.20;;
80384;SDS011;69702;44.618;33.604;2024-01-15T04:16:11;19.27;;;10.30;;
80384;SDS011;69702;44.618;33.604;2024-01-15T04:18:37;18.65;;;10.75;;
80384;SDS011;69702;44.618;33.604;2024-01-15T04:21:06;18.52;;;10.45;;
80384;SDS011;69702;44.618;33.604;2024-01-15T04:23:32;20.58;;;10.30;;
80384;SDS011;69702;44.618;33.604;2024-01-15T04:25:58;19.45;;;9.65;;
80384;SDS011;69702;44.618;33.604;2024-01-15T04:28:25;18.63;;;9.23;;
80384;SDS011;69702;44.618;33.604;2024-01-15T04:30:51;20.27;;;10.98;;
80384;SDS011;69702;44.618;33.604;2024-01-15T04:33:17;17.67;;;9.95;;
80384;SDS011;69702;44.618;33.604;2024-01-15T04:35:43;20.85;;;11.05;;
80384;SDS011;69702;44.618;33.604;2024-01-15T04:38:09;21.45;;;11.50;;
80384;SDS011;69702;44.618;33.604;2024-01-15T04:40:35;34.22;;;10.68;;
80384;SDS011;69702;44.618;33.604;2024-01-15T04:43:01;19.05;;;10.98;;
80384;SDS011;69702;44.618;33.604;2024-01-15T04:45:27;19.67;;;10.40;;
80384;SDS011;69702;44.618;33.604;2024-01-15T04:47:54;19.67;;;9.90;;
80384;SDS011;69702;44.618;33.604;2024-01-15T04:50:23;16.33;;;8.97;;
80384;SDS011;69702;44.618;33.604;2024-01-15T04:52:49;19.83;;;11.48;;
80384;SDS011;69702;44.618;33.604;2024-01-15T04:55:16;19.05;;;10.82;;
80384;SDS011;69702;44.618;33.604;2024-01-15T04:57:42;19.73;;;10.43;;
80384;SDS011;69702;44.618;33.604;2024-01-15T05:00:08;22.17;;;11.38;;
80384;SDS011;69702;44.618;33.604;2024-01-15T05:02:34;18.13;;;9.80;;
80384;SDS011;69702;44.618;33.604;2024-01-15T05:05:00;21.70;;;11.35;;
80384;SDS011;69702;44.618;33.604;2024-01-15T05:07:28;21.25;;;10.32;;
80384;SDS011;69702;44.618;33.604;2024-01-15T05:09:54;20.45;;;10.95;;
80384;SDS011;69702;44.618;33.604;2024-01-15T05:12:20;21.08;;;10.48;;
80384;SDS011;69702;44.618;33.604;2024-01-15T05:14:46;19.20;;;9.47;;
80384;SDS011;69702;44.618;33.604;2024-01-15T05:17:12;18.60;;;9.88;;
80384;SDS011;69702;44.618;33.604;2024-01-15T05:19:38;20.98;;;11.20;;
80384;SDS011;69702;44.618;33.604;2024-01-15T05:22:04;21.90;;;10.95;;
80384;SDS011;69702;44.618;33.604;2024-01-15T05:24:30;21.10;;;12.00;;
80384;SDS011;69702;44.618;33.604;2024-01-15T05:26:57;18.93;;;9.97;;
80384;SDS011;69702;44.618;33.604;2024-01-15T05:29:22;20.08;;;10.18;;
80384;SDS011;69702;44.618;33.604;2024-01-15T05:31:49;18.45;;;10.48;;
80384;SDS011;69702;44.618;33.604;2024-01-15T05:34:15;17.65;;;9.40;;
80384;SDS011;69702;44.618;33.604;2024-01-15T05:36:41;19.17;;;10.43;;
80384;SDS011;69702;44.618;33.604;2024-01-15T05:39:07;17.42;;;9.27;;
80384;SDS011;69702;44.618;33.604;2024-01-15T05:41:33;16.80;;;9.50;;
80384;SDS011;69702;44.618;33.604;2024-01-15T05:43:59;16.55;;;9.52;;
80384;SDS011;69702;44.618;33.604;2024-01-15T05:46:26;21.73;;;10.95;;
80384;SDS011;69702;44.618;33.604;2024-01-15T05:48:52;16.03;;;9.40;;
80384;SDS011;69702;44.618;33.604;2024-01-15T05:51:18;18.73;;;9.98;;
80384;SDS011;69702;44.618;33.604;2024-01-15T05:53:44;15.95;;;8.90;;
80384;SDS011;69702;44.618;33.604;2024-01-15T05:56:10;17.02;;;9.40;;
80384;SDS011;69702;44.618;33.604;2024-01-15T05:58:36;20.33;;;9.93;;
80384;SDS011;69702;44.618;33.604;2024-01-15T06:01:03;19.83;;;10.37;;
80384;SDS011;69702;44.618;33.604;2024-01-15T06:03:29;18.92;;;9.60;;
80384;SDS011;69702;44.618;33.604;2024-01-15T06:05:55;16.80;;;9.13;;
80384;SDS011;69702;44.618;33.604;2024-01-15T06:08:22;17.27;;;9.18;;
80384;SDS011;69702;44.618;33.604;2024-01-15T06:10:48;18.95;;;11.73;;
80384;SDS011;69702;44.618;33.604;2024-01-15T06:13:14;17.00;;;9.57;;
80384;SDS011;69702;44.618;33.604;2024-01-15T06:15:40;18.63;;;10.57;;
80384;SDS011;69702;44.618;33.604;2024-01-15T06:18:06;17.33;;;10.02;;
80384;SDS011;69702;44.618;33.604;2024-01-15T06:20:32;16.27;;;9.90;;
80384;SDS011;69702;44.618;33.604;2024-01-15T06:22:59;15.60;;;9.18;;
80384;SDS011;69702;44.618;33.604;2024-01-15T06:25:40;15.97;;;9.33;;
80384;SDS011;69702;44.618;33.604;2024-01-15T06:32:23;17.45;;;10.52;;
80384;SDS011;69702;44.618;33.604;2024-01-15T06:39:09;15.45;;;9.43;;
80384;SDS011;69702;44.618;33.604;2024-01-15T06:41:50;16.60;;;9.10;;
80384;SDS011;69702;44.618;33.604;2024-01-15T06:48:00;14.63;;;8.88;;
80384;SDS011;69702;44.618;33.604;2024-01-15T06:54:12;15.32;;;8.00;;
80384;SDS011;69702;44.618;33.604;2024-01-15T06:57:18;14.10;;;8.07;;
80384;SDS011;69702;44.618;33.604;2024-01-15T07:00:05;13.77;;;7.60;;
80384;SDS011;69702;44.618;33.604;2024-01-15T07:02:58;16.13;;;8.15;;
80384;SDS011;69702;44.618;33.604;2024-01-15T07:05:33;14.20;;;7.85;;
80384;SDS011;69702;44.618;33.604;2024-01-15T07:07:59;14.65;;;7.70;;
80384;SDS011;69702;44.618;33.604;2024-01-15T07:10:26;13.17;;;7.37;;
80384;SDS011;69702;44.618;33.604;2024-01-15T07:12:52;11.63;;;7.72;;
80384;SDS011;69702;44.618;33.604;2024-01-15T07:15:19;12.23;;;7.10;;
80384;SDS011;69702;44.618;33.604;2024-01-15T07:17:45;11.70;;;7.00;;
80384;SDS011;69702;44.618;33.604;2024-01-15T07:20:11;12.77;;;8.05;;
80384;SDS011;69702;44.618;33.604;2024-01-15T07:22:37;13.63;;;7.83;;
80384;SDS011;69702;44.618;33.604;2024-01-15T07:25:04;14.23;;;7.65;;
80384;SDS011;69702;44.618;33.604;2024-01-15T07:27:32;12.88;;;7.45;;
80384;SDS011;69702;44.618;33.604;2024-01-15T07:29:59;16.63;;;8.30;;
80384;SDS011;69702;44.618;33.604;2024-01-15T07:32:25;14.98;;;8.18;;
80384;SDS011;69702;44.618;33.604;2024-01-15T07:34:51;14.77;;;7.03;;
80384;SDS011;69702;44.618;33.604;2024-01-15T07:37:26;14.20;;;7.60;;
80384;SDS011;69702;44.618;33.604;2024-01-15T07:40:07;12.63;;;7.13;;
80384;SDS011;69702;44.618;33.604;2024-01-15T07:43:28;13.27;;;7.90;;
80384;SDS011;69702;44.618;33.604;2024-01-15T07:58:01;14.05;;;7.57;;
80384;SDS011;69702;44.618;33.604;2024-01-15T08:00:44;16.88;;;8.80;;
80384;SDS011;69702;44.618;33.604;2024-01-15T08:04:24;18.38;;;9.80;;
80384;SDS011;69702;44.618;33.604;2024-01-15T08:10:42;16.27;;;7.45;;
80384;SDS011;69702;44.618;33.604;2024-01-15T08:13:41;14.15;;;10.15;;
80384;SDS011;69702;44.618;33.604;2024-01-15T08:17:02;13.75;;;7.35;;
80384;SDS011;69702;44.618;33.604;2024-01-15T08:27:16;14.00;;;8.25;;
80384;SDS011;69702;44.618;33.604;2024-01-15T08:45:53;12.32;;;8.40;;
80384;SDS011;69702;44.618;33.604;2024-01-15T08:51:46;15.52;;;9.07;;
80384;SDS011;69702;44.618;33.604;2024-01-15T08:54:47;13.57;;;7.95;;
80384;SDS011;69702;44.618;33.604;2024-01-15T08:58:24;15.43;;;8.27;;
80384;SDS011;69702;44.618;33.604;2024-01-15T09:12:42;14.65;;;8.68;;
80384;SDS011;69702;44.618;33.604;2024-01-15T09:15:56;13.33;;;8.10;;
80384;SDS011;69702;44.618;33.604;2024-01-15T09:22:45;15.10;;;9.07;;
80384;SDS011;69702;44.618;33.604;2024-01-15T09:58:41;13.88;;;10.13;;
80384;SDS011;69702;44.618;33.604;2024-01-15T10:01:08;17.02;;;10.00;;
80384;SDS011;69702;44.618;33.604;2024-01-15T10:03:35;14.75;;;7.97;;
80384;SDS011;69702;44.618;33.604;2024-01-15T10:10:07;13.40;;;8.10;;
80384;SDS011;69702;44.618;33.604;2024-01-15T10:16:52;13.60;;;10.55;;
80384;SDS011;69702;44.618;33.604;2024-01-15T10:19:21;14.23;;;10.77;;
80384;SDS011;69702;44.618;33.604;2024-01-15T10:30:10;12.98;;;9.35;;
80384;SDS011;69702;44.618;33.604;2024-01-15T10:32:37;11.63;;;7.38;;
80384;SDS011;69702;44.618;33.604;2024-01-15T10:35:03;13.50;;;10.40;;
80384;SDS011;69702;44.618;33.604;2024-01-15T10:37:32;11.55;;;8.57;;
80384;SDS011;69702;44.618;33.604;2024-01-15T10:40:01;10.90;;;8.80;;
80384;SDS011;69702;44.618;33.604;2024-01-15T10:42:30;13.32;;;10.20;;
80384;SDS011;69702;44.618;33.604;2024-01-15T10:44:56;13.73;;;9.70;;
80384;SDS011;69702;44.618;33.604;2024-01-15T10:47:22;11.93;;;8.63;;
80384;SDS011;69702;44.618;33.604;2024-01-15T10:49:48;14.30;;;9.13;;
80384;SDS011;69702;44.618;33.604;2024-01-15T10:52:24;14.70;;;8.10;;
80384;SDS011;69702;44.618;33.604;2024-01-15T10:55:07;16.60;;;10.05;;
80384;SDS011;69702;44.618;33.604;2024-01-15T10:57:48;13.27;;;8.10;;
80384;SDS011;69702;44.618;33.604;2024-01-15T11:00:30;13.90;;;8.30;;
80384;SDS011;69702;44.618;33.604;2024-01-15T11:03:35;17.10;;;11.60;;
80384;SDS011;69702;44.618;33.604;2024-01-15T11:10:44;12.10;;;8.98;;
80384;SDS011;69702;44.618;33.604;2024-01-15T11:17:24;12.63;;;8.98;;
80384;SDS011;69702;44.618;33.604;2024-01-15T11:24:47;12.63;;;10.23;;
80384;SDS011;69702;44.618;33.604;2024-01-15T11:27:44;15.50;;;9.13;;
80384;SDS011;69702;44.618;33.604;2024-01-15T11:33:49;16.67;;;9.10;;
80384;SDS011;69702;44.618;33.604;2024-01-15T11:40:49;12.50;;;9.00;;
80384;SDS011;69702;44.618;33.604;2024-01-15T11:43:43;11.50;;;8.77;;
80384;SDS011;69702;44.618;33.604;2024-01-15T11:46:29;12.18;;;8.43;;
80384;SDS011;69702;44.618;33.604;2024-01-15T11:50:02;12.48;;;8.15;;
80384;SDS011;69702;44.618;33.604;2024-01-15T11:53:01;13.75;;;9.20;;
80384;SDS011;69702;44.618;33.604;2024-01-15T11:55:46;13.27;;;8.97;;
80384;SDS011;69702;44.618;33.604;2024-01-15T11:59:07;13.05;;;8.90;;
80384;SDS011;69702;44.618;33.604;2024-01-15T12:02:28;13.88;;;8.65;;
80384;SDS011;69702;44.618;33.604;2024-01-15T12:09:09;14.10;;;10.45;;
80384;SDS011;69702;44.618;33.604;2024-01-15T12:19:25;14.40;;;8.82;;
80384;SDS011;69702;44.618;33.604;2024-01-15T12:21:52;12.93;;;8.30;;
80384;SDS011;69702;44.618;33.604;2024-01-15T12:24:18;13.27;;;9.27;;
80384;SDS011;69702;44.618;33.604;2024-01-15T12:26:44;15.17;;;9.80;;
80384;SDS011;69702;44.618;33.604;2024-01-15T12:29:10;13.65;;;9.27;;
80384;SDS011;69702;44.618;33.604;2024-01-15T12:34:49;14.98;;;10.73;;
80384;SDS011;69702;44.618;33.604;2024-01-15T12:37:18;15.00;;;10.15;;
80384;SDS011;69702;44.618;33.604;2024-01-15T12:39:45;12.63;;;8.67;;
80384;SDS011;69702;44.618;33.604;2024-01-15T12:42:14;14.25;;;8.98;;
80384;SDS011;69702;44.618;33.604;2024-01-15T12:44:42;13.15;;;8.35;;
80384;SDS011;69702;44.618;33.604;2024-01-15T12:47:10;17.38;;;9.65;;
80384;SDS011;69702;44.618;33.604;2024-01-15T12:49:37;15.15;;;10.27;;
80384;SDS011;69702;44.618;33.604;2024-01-15T12:52:03;15.83;;;9.87;;
80384;SDS011;69702;44.618;33.604;2024-01-15T12:54:38;16.02;;;9.35;;
80384;SDS011;69702;44.618;33.604;2024-01-15T12:57:04;19.00;;;10.32;;
80384;SDS011;69702;44.618;33.604;2024-01-15T12:59:30;17.23;;;10.32;;
80384;SDS011;69702;44.618;33.604;2024-01-15T13:01:56;16.95;;;11.85;;
80384;SDS011;69702;44.618;33.604;2024-01-15T13:04:23;23.53;;;11.30;;
80384;SDS011;69702;44.618;33.604;2024-01-15T13:06:50;18.95;;;11.02;;
80384;SDS011;69702;44.618;33.604;2024-01-15T13:09:29;17.05;;;10.10;;
80384;SDS011;69702;44.618;33.604;2024-01-15T13:12:25;21.10;;;11.30;;
80384;SDS011;69702;44.618;33.604;2024-01-15T13:15:59;18.17;;;11.13;;
80384;SDS011;69702;44.618;33.604;2024-01-15T13:18:49;19.10;;;11.43;;
80384;SDS011;69702;44.618;33.604;2024-01-15T13:21:15;19.55;;;11.68;;
80384;SDS011;69702;44.618;33.604;2024-01-15T13:23:41;18.98;;;11.43;;
80384;SDS011;69702;44.618;33.604;2024-01-15T13:26:07;18.92;;;11.50;;
80384;SDS011;69702;44.618;33.604;2024-01-15T13:28:34;17.35;;;10.52;;
80384;SDS011;69702;44.618;33.604;2024-01-15T13:31:00;16.87;;;10.33;;
80384;SDS011;69702;44.618;33.604;2024-01-15T13:33:26;18.85;;;11.13;;
80384;SDS011;69702;44.618;33.604;2024-01-15T13:35:55;21.70;;;13.18;;
80384;SDS011;69702;44.618;33.604;2024-01-15T13:39:10;31.17;;;16.55;;
80384;SDS011;69702;44.618;33.604;2024-01-15T13:41:59;22.13;;;12.77;;
80384;SDS011;69702;44.618;33.604;2024-01-15T13:44:25;20.20;;;10.77;;
80384;SDS011;69702;44.618;33.604;2024-01-15T13:47:31;19.23;;;10.93;;
80384;SDS011;69702;44.618;33.604;2024-01-15T13:50:35;18.67;;;11.50;;
80384;SDS011;69702;44.618;33.604;2024-01-15T13:53:07;20.35;;;11.82;;
80384;SDS011;69702;44.618;33.604;2024-01-15T13:59:09;19.67;;;10.90;;
80384;SDS011;69702;44.618;33.604;2024-01-15T14:01:50;19.83;;;11.38;;
80384;SDS011;69702;44.618;33.604;2024-01-15T14:04:21;18.67;;;11.35;;
80384;SDS011;69702;44.618;33.604;2024-01-15T14:06:48;20.52;;;11.18;;
80384;SDS011;69702;44.618;33.604;2024-01-15T14:09:14;20.63;;;11.82;;
80384;SDS011;69702;44.618;33.604;2024-01-15T14:11:40;19.60;;;11.67;;
80384;SDS011;69702;44.618;33.604;2024-01-15T14:14:06;17.75;;;10.45;;
80384;SDS011;69702;44.618;33.604;2024-01-15T14:16:35;18.65;;;11.43;;
80384;SDS011;69702;44.618;33.604;2024-01-15T14:19:01;18.10;;;11.15;;
80384;SDS011;69702;44.618;33.604;2024-01-15T14:21:28;22.05;;;12.55;;
80384;SDS011;69702;44.618;33.604;2024-01-15T14:23:54;22.63;;;11.97;;
80384;SDS011;69702;44.618;33.604;2024-01-15T14:26:20;20.50;;;11.82;;
80384;SDS011;69702;44.618;33.604;2024-01-15T14:28:46;22.75;;;12.93;;
80384;SDS011;69702;44.618;33.604;2024-01-15T14:31:13;21.58;;;11.85;;
80384;SDS011;69702;44.618;33.604;2024-01-15T14:33:40;20.45;;;11.90;;
80384;SDS011;69702;44.618;33.604;2024-01-15T14:36:06;21.70;;;11.77;;
80384;SDS011;69702;44.618;33.604;2024-01-15T14:38:38;21.25;;;11.75;;
80384;SDS011;69702;44.618;33.604;2024-01-15T14:45:11;20.55;;;11.05;;
80384;SDS011;69702;44.618;33.604;2024-01-15T14:54:56;21.00;;;10.85;;
80384;SDS011;69702;44.618;33.604;2024-01-15T14:57:59;19.75;;;12.20;;
80384;SDS011;69702;44.618;33.604;2024-01-15T15:00:28;30.25;;;14.48;;
80384;SDS011;69702;44.618;33.604;2024-01-15T15:02:54;20.75;;;12.40;;
80384;SDS011;69702;44.618;33.604;2024-01-15T15:05:20;19.07;;;11.30;;
80384;SDS011;69702;44.618;33.604;2024-01-15T15:07:52;19.98;;;12.65;;
80384;SDS011;69702;44.618;33.604;2024-01-15T15:10:50;20.17;;;12.07;;
80384;SDS011;69702;44.618;33.604;2024-01-15T15:13:16;24.92;;;12.18;;
80384;SDS011;69702;44.618;33.604;2024-01-15T15:15:42;18.55;;;11.20;;
80384;SDS011;69702;44.618;33.604;2024-01-15T15:18:09;21.58;;;11.82;;
80384;SDS011;69702;44.618;33.604;2024-01-15T15:20:45;19.02;;;10.43;;
80384;SDS011;69702;44.618;33.604;2024-01-15T15:23:28;22.27;;;11.80;;
80384;SDS011;69702;44.618;33.604;2024-01-15T15:25:54;19.75;;;11.32;;
80384;SDS011;69702;44.618;33.604;2024-01-15T15:28:20;27.63;;;12.13;;
80384;SDS011;69702;44.618;33.604;2024-01-15T15:30:46;21.42;;;11.57;;
80384;SDS011;69702;44.618;33.604;2024-01-15T15:33:12;22.58;;;11.13;;
80384;SDS011;69702;44.618;33.604;2024-01-15T15:35:40;19.95;;;11.82;;
80384;SDS011;69702;44.618;33.604;2024-01-15T15:38:06;18.65;;;10.70;;
80384;SDS011;69702;44.618;33.604;2024-01-15T15:40:51;21.83;;;11.13;;
80384;SDS011;69702;44.618;33.604;2024-01-15T15:43:17;19.55;;;10.20;;
80384;SDS011;69702;44.618;33.604;2024-01-15T15:45:44;18.08;;;10.50;;
80384;SDS011;69702;44.618;33.604;2024-01-15T15:48:30;16.98;;;9.73;;
80384;SDS011;69702;44.618;33.604;2024-01-15T15:50:56;18.58;;;10.30;;
80384;SDS011;69702;44.618;33.604;2024-01-15T15:53:25;18.07;;;10.60;;
80384;SDS011;69702;44.618;33.604;2024-01-15T15:55:51;17.90;;;10.10;;
80384;SDS011;69702;44.618;33.604;2024-01-15T15:58:18;18.23;;;10.30;;
80384;SDS011;69702;44.618;33.604;2024-01-15T16:00:44;18.70;;;9.95;;
80384;SDS011;69702;44.618;33.604;2024-01-15T16:03:10;17.13;;;10.93;;
80384;SDS011;69702;44.618;33.604;2024-01-15T16:05:36;18.33;;;9.27;;
80384;SDS011;69702;44.618;33.604;2024-01-15T16:08:02;18.17;;;9.65;;
80384;SDS011;69702;44.618;33.604;2024-01-15T16:10:30;17.35;;;8.68;;
80384;SDS011;69702;44.618;33.604;2024-01-15T16:12:56;16.15;;;8.57;;
80384;SDS011;69702;44.618;33.604;2024-01-15T16:15:22;18.48;;;9.60;;
80384;SDS011;69702;44.618;33.604;2024-01-15T16:17:49;15.57;;;8.90;;
80384;SDS011;69702;44.618;33.604;2024-01-15T16:20:16;15.57;;;9.48;;
80384;SDS011;69702;44.618;33.604;2024-01-15T16:22:42;16.10;;;9.10;;
80384;SDS011;69702;44.618;33.604;2024-01-15T16:25:09;17.48;;;9.35;;
80384;SDS011;69702;44.618;33.604;2024-01-15T16:27:35;17.15;;;8.65;;
80384;SDS011;69702;44.618;33.604;2024-01-15T16:30:02;17.73;;;9.27;;
80384;SDS011;69702;44.618;33.604;2024-01-15T16:32:30;19.08;;;9.75;;
80384;SDS011;69702;44.618;33.604;2024-01-15T16:34:57;15.93;;;9.90;;
80384;SDS011;69702;44.618;33.604;2024-01-15T16:37:23;16.67;;;8.93;;
80384;SDS011;69702;44.618;33.604;2024-01-15T16:39:49;18.60;;;8.38;;
80384;SDS011;69702;44.618;33.604;2024-01-15T16:42:15;17.43;;;8.47;;
80384;SDS011;69702;44.618;33.604;2024-01-15T16:44:41;15.88;;;9.05;;
80384;SDS011;69702;44.618;33.604;2024-01-15T16:47:07;17.60;;;8.45;;
80384;SDS011;69702;44.618;33.604;2024-01-15T16:49:33;19.80;;;9.02;;
80384;SDS011;69702;44.618;33.604;2024-01-15T16:51:59;17.03;;;7.53;;
80384;SDS011;69702;44.618;33.604;2024-01-15T16:54:26;18.92;;;8.88;;
80384;SDS011;69702;44.618;33.604;2024-01-15T16:56:52;16.60;;;8.05;;
80384;SDS011;69702;44.618;33.604;2024-01-15T16:59:18;15.13;;;7.80;;
80384;SDS011;69702;44.618;33.604;2024-01-15T17:01:44;15.50;;;7.53;;
80384;SDS011;69702;44.618;33.604;2024-01-15T17:04:11;13.57;;;6.83;;
80384;SDS011;69702;44.618;33.604;2024-01-15T17:06:37;16.98;;;8.35;;
80384;SDS011;69702;44.618;33.604;2024-01-15T17:09:03;15.98;;;7.05;;
80384;SDS011;69702;44.618;33.604;2024-01-15T17:11:29;16.33;;;7.22;;
80384;SDS011;69702;44.618;33.604;2024-01-15T17:14:14;16.05;;;7.90;;
80384;SDS011;69702;44.618;33.604;2024-01-15T17:16:42;18.77;;;7.70;;
80384;SDS011;69702;44.618;33.604;2024-01-15T17:19:08;16.00;;;7.43;;
80384;SDS011;69702;44.618;33.604;2024-01-15T17:21:35;14.82;;;7.90;;
80384;SDS011;69702;44.618;33.604;2024-01-15T17:24:02;15.77;;;7.32;;
80384;SDS011;69702;44.618;33.604;2024-01-15T17:26:28;15.50;;;6.70;;
80384;SDS011;69702;44.618;33.604;2024-01-15T17:28:54;13.80;;;6.43;;
80384;SDS011;69702;44.618;33.604;2024-01-15T17:31:21;16.30;;;6.90;;
80384;SDS011;69702;44.618;33.604;2024-01-15T17:33:47;16.00;;;7.07;;